sensor_id;sensor_type;location;lat;lon;timestamp;P1;durP1;ratioP1;P2;durP2;ratioP2
43160;SDS011;40968;52.342;5.528;2023-11-18T00:01:34;104.63;;;36.25;;
43160;SDS011;40968;52.342;5.528;2023-11-18T00:04:00;98.05;;;33.05;;
43160;SDS011;40968;52.342;5.528;2023-11-18T00:06:27;105.88;;;34.75;;
43160;SDS011;40968;52.342;5.528;2023-11-18T00:08:55;107.10;;;35.20;;
43160;SDS011;40968;52.342;5.528;2023-11-18T00:11:22;108.10;;;37.67;;
43160;SDS011;40968;52.342;5.528;2023-11-18T00:13:49;108.35;;;34.65;;
43160;SDS011;40968;52.342;5.528;2023-11-18T00:16:15;107.85;;;35.53;;
43160;SDS011;40968;52.342;5.528;2023-11-18T00:18:42;98.70;;;35.70;;
43160;SDS011;40968;52.342;5.528;2023-11-18T00:21:09;96.38;;;33.33;;
43160;SDS011;40968;52.342;5.528;2023-11-18T00:23:35;116.35;;;35.83;;
43160;SDS011;40968;52.342;5.528;2023-11-18T00:26:04;115.75;;;38.70;;
43160;SDS011;40968;52.342;5.528;2023-11-18T00:28:32;116.03;;;34.78;;
43160;SDS011;40968;52.342;5.528;2023-11-18T00:30:58;103.57;;;34.35;;
43160;SDS011;40968;52.342;5.528;2023-11-18T00:33:25;102.70;;;34.10;;
43160;SDS011;40968;52.342;5.528;2023-11-18T00:35:52;99.95;;;34.63;;
43160;SDS011;40968;52.342;5.528;2023-11-18T00:38:19;101.00;;;34.83;;
43160;SDS011;40968;52.342;5.528;2023-11-18T00:40:45;108.85;;;35.15;;
43160;SDS011;40968;52.342;5.528;2023-11-18T00:43:13;107.55;;;32.75;;
43160;SDS011;40968;52.342;5.528;2023-11-18T00:45:40;97.03;;;31.90;;
43160;SDS011;40968;52.342;5.528;2023-11-18T00:48:08;101.85;;;34.65;;
43160;SDS011;40968;52.342;5.528;2023-11-18T00:50:35;106.85;;;34.83;;
43160;SDS011;40968;52.342;5.528;2023-11-18T00:53:01;99.85;;;35.08;;
43160;SDS011;40968;52.342;5.528;2023-11-18T00:55:28;104.53;;;33.65;;
43160;SDS011;40968;52.342;5.528;2023-11-18T00:57:55;110.25;;;35.80;;
43160;SDS011;40968;52.342;5.528;2023-11-18T01:00:23;89.82;;;32.40;;
43160;SDS011;40968;52.342;5.528;2023-11-18T01:02:51;91.65;;;32.88;;
43160;SDS011;40968;52.342;5.528;2023-11-18T01:05:19;94.50;;;33.20;;
43160;SDS011;40968;52.342;5.528;2023-11-18T01:07:46;104.35;;;35.22;;
43160;SDS011;40968;52.342;5.528;2023-11-18T01:10:12;110.97;;;38.85;;
43160;SDS011;40968;52.342;5.528;2023-11-18T01:12:39;104.35;;;33.72;;
43160;SDS011;40968;52.342;5.528;2023-11-18T01:15:07;103.57;;;37.30;;
43160;SDS011;40968;52.342;5.528;2023-11-18T01:17:37;107.03;;;36.83;;
43160;SDS011;40968;52.342;5.528;2023-11-18T01:20:04;100.97;;;35.47;;
43160;SDS011;40968;52.342;5.528;2023-11-18T01:22:35;102.50;;;34.83;;
43160;SDS011;40968;52.342;5.528;2023-11-18T01:25:02;100.75;;;34.10;;
43160;SDS011;40968;52.342;5.528;2023-11-18T01:27:29;106.20;;;36.05;;
43160;SDS011;40968;52.342;5.528;2023-11-18T01:29:58;93.20;;;35.53;;
43160;SDS011;40968;52.342;5.528;2023-11-18T01:32:25;106.30;;;35.70;;
43160;SDS011;40968;52.342;5.528;2023-11-18T01:34:53;107.70;;;37.25;;
43160;SDS011;40968;52.342;5.528;2023-11-18T01:37:19;92.28;;;33.20;;
43160;SDS011;40968;52.342;5.528;2023-11-18T01:39:47;114.25;;;38.05;;
43160;SDS011;40968;52.342;5.528;2023-11-18T01:42:13;97.72;;;35.85;;
43160;SDS011;40968;52.342;5.528;2023-11-18T01:44:40;116.68;;;35.05;;
43160;SDS011;40968;52.342;5.528;2023-11-18T01:47:07;125.90;;;38.20;;
43160;SDS011;40968;52.342;5.528;2023-11-18T01:49:36;105.80;;;35.70;;
43160;SDS011;40968;52.342;5.528;2023-11-18T01:52:06;114.50;;;38.15;;
43160;SDS011;40968;52.342;5.528;2023-11-18T01:54:34;107.63;;;36.92;;
43160;SDS011;40968;52.342;5.528;2023-11-18T01:57:03;122.93;;;38.10;;
43160;SDS011;40968;52.342;5.528;2023-11-18T01:59:32;105.43;;;36.28;;
43160;SDS011;40968;52.342;5.528;2023-11-18T02:01:59;103.97;;;37.20;;
43160;SDS011;40968;52.342;5.528;2023-11-18T02:04:26;105.35;;;36.05;;
43160;SDS011;40968;52.342;5.528;2023-11-18T02:06:53;108.35;;;37.17;;
43160;SDS011;40968;52.342;5.528;2023-11-18T02:09:22;99.30;;;35.00;;
43160;SDS011;40968;52.342;5.528;2023-11-18T02:11:54;101.07;;;34.28;;
43160;SDS011;40968;52.342;5.528;2023-11-18T02:14:25;109.90;;;37.00;;
43160;SDS011;40968;52.342;5.528;2023-11-18T02:16:55;115.35;;;37.38;;
43160;SDS011;40968;52.342;5.528;2023-11-18T02:19:25;103.93;;;35.92;;
43160;SDS011;40968;52.342;5.528;2023-11-18T02:21:52;111.35;;;37.72;;
43160;SDS011;40968;52.342;5.528;2023-11-18T02:24:26;103.05;;;37.10;;
43160;SDS011;40968;52.342;5.528;2023-11-18T02:26:58;105.15;;;36.45;;
43160;SDS011;40968;52.342;5.528;2023-11-18T02:29:25;111.95;;;38.10;;
43160;SDS011;40968;52.342;5.528;2023-11-18T02:31:55;111.70;;;38.60;;
43160;SDS011;40968;52.342;5.528;2023-11-18T02:34:27;102.90;;;37.88;;
43160;SDS011;40968;52.342;5.528;2023-11-18T02:36:59;106.38;;;38.83;;
43160;SDS011;40968;52.342;5.528;2023-11-18T02:39:32;109.57;;;38.30;;
43160;SDS011;40968;52.342;5.528;2023-11-18T02:42:05;105.00;;;35.72;;
43160;SDS011;40968;52.342;5.528;2023-11-18T02:44:34;110.32;;;38.70;;
43160;SDS011;40968;52.342;5.528;2023-11-18T02:47:02;107.45;;;36.90;;
43160;SDS011;40968;52.342;5.528;2023-11-18T02:49:30;111.47;;;37.60;;
43160;SDS011;40968;52.342;5.528;2023-11-18T02:51:57;105.28;;;37.35;;
43160;SDS011;40968;52.342;5.528;2023-11-18T02:54:24;105.53;;;37.40;;
43160;SDS011;40968;52.342;5.528;2023-11-18T02:56:51;119.25;;;37.47;;
43160;SDS011;40968;52.342;5.528;2023-11-18T02:59:19;104.70;;;36.25;;
43160;SDS011;40968;52.342;5.528;2023-11-18T03:01:45;107.32;;;37.38;;
43160;SDS011;40968;52.342;5.528;2023-11-18T03:04:12;99.90;;;37.75;;
43160;SDS011;40968;52.342;5.528;2023-11-18T03:06:39;107.30;;;37.38;;
43160;SDS011;40968;52.342;5.528;2023-11-18T03:09:06;119.22;;;37.67;;
43160;SDS011;40968;52.342;5.528;2023-11-18T03:11:35;114.65;;;38.17;;
43160;SDS011;40968;52.342;5.528;2023-11-18T03:14:02;100.03;;;36.65;;
43160;SDS011;40968;52.342;5.528;2023-11-18T03:16:31;119.65;;;38.75;;
43160;SDS011;40968;52.342;5.528;2023-11-18T03:18:58;110.63;;;39.05;;
43160;SDS011;40968;52.342;5.528;2023-11-18T03:21:26;103.95;;;36.38;;
43160;SDS011;40968;52.342;5.528;2023-11-18T03:23:53;110.45;;;37.95;;
43160;SDS011;40968;52.342;5.528;2023-11-18T03:26:19;101.05;;;36.90;;
43160;SDS011;40968;52.342;5.528;2023-11-18T03:28:46;99.05;;;36.28;;
43160;SDS011;40968;52.342;5.528;2023-11-18T03:31:12;103.07;;;36.65;;
43160;SDS011;40968;52.342;5.528;2023-11-18T03:33:42;106.13;;;37.58;;
43160;SDS011;40968;52.342;5.528;2023-11-18T03:36:09;111.05;;;37.72;;
43160;SDS011;40968;52.342;5.528;2023-11-18T03:38:37;113.90;;;38.35;;
43160;SDS011;40968;52.342;5.528;2023-11-18T03:41:03;107.63;;;38.78;;
43160;SDS011;40968;52.342;5.528;2023-11-18T03:43:30;116.72;;;38.92;;
43160;SDS011;40968;52.342;5.528;2023-11-18T03:45:56;101.75;;;38.22;;
43160;SDS011;40968;52.342;5.528;2023-11-18T03:48:23;104.63;;;39.15;;
43160;SDS011;40968;52.342;5.528;2023-11-18T03:50:51;109.70;;;39.38;;
43160;SDS011;40968;52.342;5.528;2023-11-18T03:53:19;114.50;;;40.65;;
43160;SDS011;40968;52.342;5.528;2023-11-18T03:55:45;119.68;;;39.88;;
43160;SDS011;40968;52.342;5.528;2023-11-18T03:58:12;123.00;;;39.85;;
43160;SDS011;40968;52.342;5.528;2023-11-18T04:00:38;101.32;;;38.97;;
43160;SDS011;40968;52.342;5.528;2023-11-18T04:03:05;123.95;;;42.85;;
43160;SDS011;40968;52.342;5.528;2023-11-18T04:05:32;115.50;;;39.45;;
43160;SDS011;40968;52.342;5.528;2023-11-18T04:08:01;116.85;;;40.70;;
43160;SDS011;40968;52.342;5.528;2023-11-18T04:10:27;112.68;;;39.85;;
43160;SDS011;40968;52.342;5.528;2023-11-18T04:12:54;109.60;;;41.17;;
43160;SDS011;40968;52.342;5.528;2023-11-18T04:15:22;118.93;;;40.28;;
43160;SDS011;40968;52.342;5.528;2023-11-18T04:17:49;109.05;;;39.05;;
43160;SDS011;40968;52.342;5.528;2023-11-18T04:20:17;112.75;;;39.53;;
43160;SDS011;40968;52.342;5.528;2023-11-18T04:22:44;120.57;;;40.90;;
43160;SDS011;40968;52.342;5.528;2023-11-18T04:25:12;114.88;;;38.78;;
43160;SDS011;40968;52.342;5.528;2023-11-18T04:27:39;117.45;;;38.42;;
43160;SDS011;40968;52.342;5.528;2023-11-18T04:30:06;103.97;;;37.60;;
43160;SDS011;40968;52.342;5.528;2023-11-18T04:32:33;111.72;;;39.88;;
43160;SDS011;40968;52.342;5.528;2023-11-18T04:35:00;110.20;;;37.85;;
43160;SDS011;40968;52.342;5.528;2023-11-18T04:37:31;116.28;;;37.08;;
43160;SDS011;40968;52.342;5.528;2023-11-18T04:39:58;108.60;;;37.10;;
43160;SDS011;40968;52.342;5.528;2023-11-18T04:42:26;105.93;;;37.70;;
43160;SDS011;40968;52.342;5.528;2023-11-18T04:44:54;110.78;;;37.15;;
43160;SDS011;40968;52.342;5.528;2023-11-18T04:47:21;100.88;;;35.67;;
43160;SDS011;40968;52.342;5.528;2023-11-18T04:49:48;104.60;;;38.38;;
43160;SDS011;40968;52.342;5.528;2023-11-18T04:52:14;102.72;;;37.28;;
43160;SDS011;40968;52.342;5.528;2023-11-18T04:54:41;106.63;;;35.40;;
43160;SDS011;40968;52.342;5.528;2023-11-18T04:57:07;109.03;;;37.38;;
43160;SDS011;40968;52.342;5.528;2023-11-18T04:59:35;105.32;;;36.15;;
43160;SDS011;40968;52.342;5.528;2023-11-18T05:02:02;111.75;;;35.97;;
43160;SDS011;40968;52.342;5.528;2023-11-18T05:04:28;118.45;;;37.47;;
43160;SDS011;40968;52.342;5.528;2023-11-18T05:06:55;99.15;;;35.72;;
43160;SDS011;40968;52.342;5.528;2023-11-18T05:09:22;100.25;;;32.50;;
43160;SDS011;40968;52.342;5.528;2023-11-18T05:11:49;113.70;;;36.78;;
43160;SDS011;40968;52.342;5.528;2023-11-18T05:14:15;106.32;;;36.17;;
43160;SDS011;40968;52.342;5.528;2023-11-18T05:16:43;101.35;;;34.40;;
43160;SDS011;40968;52.342;5.528;2023-11-18T05:19:10;103.15;;;36.13;;
43160;SDS011;40968;52.342;5.528;2023-11-18T05:21:36;119.35;;;36.90;;
43160;SDS011;40968;52.342;5.528;2023-11-18T05:24:03;109.57;;;35.75;;
43160;SDS011;40968;52.342;5.528;2023-11-18T05:26:30;116.07;;;36.60;;
43160;SDS011;40968;52.342;5.528;2023-11-18T05:29:00;103.50;;;34.53;;
43160;SDS011;40968;52.342;5.528;2023-11-18T05:31:26;108.97;;;35.55;;
43160;SDS011;40968;52.342;5.528;2023-11-18T05:33:55;106.50;;;35.65;;
43160;SDS011;40968;52.342;5.528;2023-11-18T05:36:21;109.53;;;37.28;;
43160;SDS011;40968;52.342;5.528;2023-11-18T05:38:52;117.80;;;38.38;;
43160;SDS011;40968;52.342;5.528;2023-11-18T05:41:19;118.95;;;37.80;;
43160;SDS011;40968;52.342;5.528;2023-11-18T05:43:52;117.10;;;38.72;;
43160;SDS011;40968;52.342;5.528;2023-11-18T05:46:22;110.05;;;36.67;;
43160;SDS011;40968;52.342;5.528;2023-11-18T05:48:50;121.55;;;37.65;;
43160;SDS011;40968;52.342;5.528;2023-11-18T05:51:22;115.22;;;38.97;;
43160;SDS011;40968;52.342;5.528;2023-11-18T05:53:50;116.43;;;39.95;;
43160;SDS011;40968;52.342;5.528;2023-11-18T05:56:17;122.65;;;38.00;;
43160;SDS011;40968;52.342;5.528;2023-11-18T05:58:44;113.90;;;38.42;;
43160;SDS011;40968;52.342;5.528;2023-11-18T06:01:10;128.38;;;39.42;;
43160;SDS011;40968;52.342;5.528;2023-11-18T06:03:37;133.50;;;39.78;;
43160;SDS011;40968;52.342;5.528;2023-11-18T06:06:05;127.80;;;38.65;;
43160;SDS011;40968;52.342;5.528;2023-11-18T06:08:34;113.00;;;38.25;;
43160;SDS011;40968;52.342;5.528;2023-11-18T06:11:01;109.85;;;38.50;;
43160;SDS011;40968;52.342;5.528;2023-11-18T06:13:37;115.20;;;39.00;;
43160;SDS011;40968;52.342;5.528;2023-11-18T06:16:07;107.25;;;37.97;;
43160;SDS011;40968;52.342;5.528;2023-11-18T06:18:34;114.43;;;39.00;;
43160;SDS011;40968;52.342;5.528;2023-11-18T06:21:01;110.25;;;37.90;;
43160;SDS011;40968;52.342;5.528;2023-11-18T06:23:28;108.43;;;35.13;;
43160;SDS011;40968;52.342;5.528;2023-11-18T06:25:59;118.72;;;37.38;;
43160;SDS011;40968;52.342;5.528;2023-11-18T06:28:25;105.60;;;36.05;;
43160;SDS011;40968;52.342;5.528;2023-11-18T06:30:53;116.10;;;36.95;;
43160;SDS011;40968;52.342;5.528;2023-11-18T06:33:20;117.43;;;34.33;;
43160;SDS011;40968;52.342;5.528;2023-11-18T06:35:47;112.78;;;34.83;;
43160;SDS011;40968;52.342;5.528;2023-11-18T06:38:14;113.63;;;35.53;;
43160;SDS011;40968;52.342;5.528;2023-11-18T06:40:43;108.30;;;34.85;;
43160;SDS011;40968;52.342;5.528;2023-11-18T06:43:12;106.55;;;33.25;;
43160;SDS011;40968;52.342;5.528;2023-11-18T06:45:42;105.53;;;32.40;;
43160;SDS011;40968;52.342;5.528;2023-11-18T06:48:09;109.00;;;33.80;;
43160;SDS011;40968;52.342;5.528;2023-11-18T06:50:36;114.70;;;33.80;;
43160;SDS011;40968;52.342;5.528;2023-11-18T06:53:04;106.70;;;33.72;;
43160;SDS011;40968;52.342;5.528;2023-11-18T06:55:33;96.38;;;31.55;;
43160;SDS011;40968;52.342;5.528;2023-11-18T06:58:00;105.63;;;31.70;;
43160;SDS011;40968;52.342;5.528;2023-11-18T07:00:28;103.75;;;32.92;;
43160;SDS011;40968;52.342;5.528;2023-11-18T07:02:55;105.90;;;31.30;;
43160;SDS011;40968;52.342;5.528;2023-11-18T07:05:22;94.68;;;31.23;;
43160;SDS011;40968;52.342;5.528;2023-11-18T07:07:49;90.93;;;30.52;;
43160;SDS011;40968;52.342;5.528;2023-11-18T07:10:15;90.88;;;30.88;;
43160;SDS011;40968;52.342;5.528;2023-11-18T07:12:45;104.20;;;30.03;;
43160;SDS011;40968;52.342;5.528;2023-11-18T07:15:12;109.22;;;31.95;;
43160;SDS011;40968;52.342;5.528;2023-11-18T07:17:41;95.40;;;29.25;;
43160;SDS011;40968;52.342;5.528;2023-11-18T07:20:08;94.03;;;30.10;;
43160;SDS011;40968;52.342;5.528;2023-11-18T07:22:38;89.23;;;29.33;;
43160;SDS011;40968;52.342;5.528;2023-11-18T07:25:05;89.50;;;29.35;;
43160;SDS011;40968;52.342;5.528;2023-11-18T07:27:34;100.32;;;29.73;;
43160;SDS011;40968;52.342;5.528;2023-11-18T07:30:01;93.43;;;28.88;;
43160;SDS011;40968;52.342;5.528;2023-11-18T07:32:29;79.68;;;27.50;;
43160;SDS011;40968;52.342;5.528;2023-11-18T07:34:57;88.10;;;28.02;;
43160;SDS011;40968;52.342;5.528;2023-11-18T07:37:23;99.28;;;28.55;;
43160;SDS011;40968;52.342;5.528;2023-11-18T07:39:51;80.88;;;27.60;;
43160;SDS011;40968;52.342;5.528;2023-11-18T07:42:20;87.80;;;28.20;;
43160;SDS011;40968;52.342;5.528;2023-11-18T07:44:46;86.32;;;29.10;;
43160;SDS011;40968;52.342;5.528;2023-11-18T07:47:14;84.20;;;28.95;;
43160;SDS011;40968;52.342;5.528;2023-11-18T07:49:41;84.05;;;27.30;;
43160;SDS011;40968;52.342;5.528;2023-11-18T07:52:09;92.55;;;28.58;;
43160;SDS011;40968;52.342;5.528;2023-11-18T07:54:35;70.22;;;24.92;;
43160;SDS011;40968;52.342;5.528;2023-11-18T07:57:03;85.85;;;25.83;;
43160;SDS011;40968;52.342;5.528;2023-11-18T07:59:32;87.55;;;27.10;;
43160;SDS011;40968;52.342;5.528;2023-11-18T08:01:59;81.45;;;26.48;;
43160;SDS011;40968;52.342;5.528;2023-11-18T08:04:28;70.88;;;25.65;;
43160;SDS011;40968;52.342;5.528;2023-11-18T08:06:55;90.25;;;27.55;;
43160;SDS011;40968;52.342;5.528;2023-11-18T08:09:23;83.45;;;27.23;;
43160;SDS011;40968;52.342;5.528;2023-11-18T08:11:50;72.75;;;24.60;;
43160;SDS011;40968;52.342;5.528;2023-11-18T08:14:20;77.35;;;24.70;;
43160;SDS011;40968;52.342;5.528;2023-11-18T08:16:47;80.50;;;24.67;;
43160;SDS011;40968;52.342;5.528;2023-11-18T08:19:14;72.28;;;24.00;;
43160;SDS011;40968;52.342;5.528;2023-11-18T08:21:41;70.72;;;23.60;;
43160;SDS011;40968;52.342;5.528;2023-11-18T08:24:07;81.15;;;25.05;;
43160;SDS011;40968;52.342;5.528;2023-11-18T08:26:35;82.13;;;24.30;;
43160;SDS011;40968;52.342;5.528;2023-11-18T08:29:03;66.43;;;21.95;;
43160;SDS011;40968;52.342;5.528;2023-11-18T08:31:29;68.72;;;23.15;;
43160;SDS011;40968;52.342;5.528;2023-11-18T08:33:57;64.45;;;22.17;;
43160;SDS011;40968;52.342;5.528;2023-11-18T08:36:25;79.07;;;23.20;;
43160;SDS011;40968;52.342;5.528;2023-11-18T08:38:52;76.78;;;22.48;;
43160;SDS011;40968;52.342;5.528;2023-11-18T08:41:19;74.50;;;22.35;;
43160;SDS011;40968;52.342;5.528;2023-11-18T08:43:48;63.60;;;21.58;;
43160;SDS011;40968;52.342;5.528;2023-11-18T08:46:15;61.75;;;21.00;;
43160;SDS011;40968;52.342;5.528;2023-11-18T08:48:42;64.68;;;20.40;;
43160;SDS011;40968;52.342;5.528;2023-11-18T08:51:09;60.85;;;20.33;;
43160;SDS011;40968;52.342;5.528;2023-11-18T08:53:37;57.55;;;19.35;;
43160;SDS011;40968;52.342;5.528;2023-11-18T08:56:07;58.55;;;20.10;;
43160;SDS011;40968;52.342;5.528;2023-11-18T08:58:38;62.53;;;19.88;;
43160;SDS011;40968;52.342;5.528;2023-11-18T09:01:08;53.45;;;18.85;;
43160;SDS011;40968;52.342;5.528;2023-11-18T09:03:39;58.50;;;19.02;;
43160;SDS011;40968;52.342;5.528;2023-11-18T09:06:08;59.60;;;18.13;;
43160;SDS011;40968;52.342;5.528;2023-11-18T09:08:42;49.25;;;17.70;;
43160;SDS011;40968;52.342;5.528;2023-11-18T09:11:10;52.35;;;16.95;;
43160;SDS011;40968;52.342;5.528;2023-11-18T09:13:40;105.63;;;19.67;;
43160;SDS011;40968;52.342;5.528;2023-11-18T09:16:11;52.35;;;16.38;;
43160;SDS011;40968;52.342;5.528;2023-11-18T09:18:38;45.90;;;16.70;;
43160;SDS011;40968;52.342;5.528;2023-11-18T09:21:06;66.95;;;16.75;;
43160;SDS011;40968;52.342;5.528;2023-11-18T09:23:39;49.95;;;16.40;;
43160;SDS011;40968;52.342;5.528;2023-11-18T09:26:06;51.35;;;15.93;;
43160;SDS011;40968;52.342;5.528;2023-11-18T09:28:34;46.15;;;16.23;;
43160;SDS011;40968;52.342;5.528;2023-11-18T09:31:01;56.42;;;17.00;;
43160;SDS011;40968;52.342;5.528;2023-11-18T09:33:31;50.35;;;16.17;;
43160;SDS011;40968;52.342;5.528;2023-11-18T09:35:58;47.40;;;14.77;;
43160;SDS011;40968;52.342;5.528;2023-11-18T09:38:26;51.55;;;15.63;;
43160;SDS011;40968;52.342;5.528;2023-11-18T09:40:54;53.08;;;15.07;;
43160;SDS011;40968;52.342;5.528;2023-11-18T09:43:21;50.67;;;15.90;;
43160;SDS011;40968;52.342;5.528;2023-11-18T09:45:49;61.92;;;14.60;;
43160;SDS011;40968;52.342;5.528;2023-11-18T09:48:20;44.33;;;14.35;;
43160;SDS011;40968;52.342;5.528;2023-11-18T09:50:52;41.45;;;14.30;;
43160;SDS011;40968;52.342;5.528;2023-11-18T09:53:19;43.40;;;14.35;;
43160;SDS011;40968;52.342;5.528;2023-11-18T09:58:25;47.97;;;13.07;;
43160;SDS011;40968;52.342;5.528;2023-11-18T10:00:59;64.22;;;14.95;;
43160;SDS011;40968;52.342;5.528;2023-11-18T10:03:28;37.75;;;13.25;;
43160;SDS011;40968;52.342;5.528;2023-11-18T10:05:56;46.65;;;14.27;;
43160;SDS011;40968;52.342;5.528;2023-11-18T10:08:29;34.25;;;11.75;;
43160;SDS011;40968;52.342;5.528;2023-11-18T10:10:56;37.65;;;13.05;;
43160;SDS011;40968;52.342;5.528;2023-11-18T10:13:30;45.67;;;13.40;;
43160;SDS011;40968;52.342;5.528;2023-11-18T10:15:59;40.35;;;13.73;;
43160;SDS011;40968;52.342;5.528;2023-11-18T10:18:30;48.03;;;15.30;;
43160;SDS011;40968;52.342;5.528;2023-11-18T10:21:01;33.50;;;12.20;;
43160;SDS011;40968;52.342;5.528;2023-11-18T10:23:29;41.83;;;13.65;;
43160;SDS011;40968;52.342;5.528;2023-11-18T10:25:59;40.85;;;13.75;;
43160;SDS011;40968;52.342;5.528;2023-11-18T10:28:28;40.88;;;14.45;;
43160;SDS011;40968;52.342;5.528;2023-11-18T10:30:58;31.15;;;11.98;;
43160;SDS011;40968;52.342;5.528;2023-11-18T10:33:28;38.17;;;12.90;;
43160;SDS011;40968;52.342;5.528;2023-11-18T10:35:56;43.97;;;13.05;;
43160;SDS011;40968;52.342;5.528;2023-11-18T10:38:24;46.03;;;14.55;;
43160;SDS011;40968;52.342;5.528;2023-11-18T10:40:54;40.95;;;13.40;;
43160;SDS011;40968;52.342;5.528;2023-11-18T10:43:23;41.13;;;13.07;;
43160;SDS011;40968;52.342;5.528;2023-11-18T10:45:51;41.58;;;14.57;;
43160;SDS011;40968;52.342;5.528;2023-11-18T10:48:20;40.00;;;12.60;;
43160;SDS011;40968;52.342;5.528;2023-11-18T10:50:47;37.47;;;13.90;;
43160;SDS011;40968;52.342;5.528;2023-11-18T10:53:16;38.20;;;13.07;;
43160;SDS011;40968;52.342;5.528;2023-11-18T10:55:45;34.85;;;14.18;;
43160;SDS011;40968;52.342;5.528;2023-11-18T10:58:12;34.72;;;13.35;;
43160;SDS011;40968;52.342;5.528;2023-11-18T11:00:49;43.50;;;13.63;;
43160;SDS011;40968;52.342;5.528;2023-11-18T11:03:18;35.50;;;13.38;;
43160;SDS011;40968;52.342;5.528;2023-11-18T11:05:48;40.75;;;12.68;;
43160;SDS011;40968;52.342;5.528;2023-11-18T11:08:15;36.15;;;12.93;;
43160;SDS011;40968;52.342;5.528;2023-11-18T11:10:42;40.65;;;13.77;;
43160;SDS011;40968;52.342;5.528;2023-11-18T11:13:10;39.28;;;12.25;;
43160;SDS011;40968;52.342;5.528;2023-11-18T11:15:40;35.08;;;13.30;;
43160;SDS011;40968;52.342;5.528;2023-11-18T11:18:11;33.03;;;12.00;;
43160;SDS011;40968;52.342;5.528;2023-11-18T11:20:41;37.10;;;12.70;;
43160;SDS011;40968;52.342;5.528;2023-11-18T11:23:16;49.35;;;12.32;;
43160;SDS011;40968;52.342;5.528;2023-11-18T11:25:50;38.97;;;12.32;;
43160;SDS011;40968;52.342;5.528;2023-11-18T11:28:32;41.13;;;14.15;;
43160;SDS011;40968;52.342;5.528;2023-11-18T11:31:11;40.13;;;12.88;;
43160;SDS011;40968;52.342;5.528;2023-11-18T11:33:43;38.78;;;12.30;;
43160;SDS011;40968;52.342;5.528;2023-11-18T11:36:21;36.15;;;12.65;;
43160;SDS011;40968;52.342;5.528;2023-11-18T11:38:58;39.47;;;12.38;;
43160;SDS011;40968;52.342;5.528;2023-11-18T11:41:26;41.00;;;12.23;;
43160;SDS011;40968;52.342;5.528;2023-11-18T11:43:56;36.25;;;12.40;;
43160;SDS011;40968;52.342;5.528;2023-11-18T11:46:23;38.58;;;12.65;;
43160;SDS011;40968;52.342;5.528;2023-11-18T11:48:57;38.25;;;12.50;;
43160;SDS011;40968;52.342;5.528;2023-11-18T11:51:27;40.63;;;12.88;;
43160;SDS011;40968;52.342;5.528;2023-11-18T11:54:01;31.50;;;10.65;;
43160;SDS011;40968;52.342;5.528;2023-11-18T11:56:40;31.15;;;11.15;;
43160;SDS011;40968;52.342;5.528;2023-11-18T11:59:09;30.77;;;11.40;;
43160;SDS011;40968;52.342;5.528;2023-11-18T12:01:36;31.50;;;10.82;;
43160;SDS011;40968;52.342;5.528;2023-11-18T12:04:04;30.17;;;9.77;;
43160;SDS011;40968;52.342;5.528;2023-11-18T12:06:35;27.48;;;10.13;;
43160;SDS011;40968;52.342;5.528;2023-11-18T12:09:08;30.58;;;10.55;;
43160;SDS011;40968;52.342;5.528;2023-11-18T12:11:36;33.45;;;11.35;;
43160;SDS011;40968;52.342;5.528;2023-11-18T12:14:05;34.88;;;10.60;;
43160;SDS011;40968;52.342;5.528;2023-11-18T12:17:02;30.50;;;10.65;;
43160;SDS011;40968;52.342;5.528;2023-11-18T12:19:34;26.98;;;10.07;;
43160;SDS011;40968;52.342;5.528;2023-11-18T12:22:10;28.02;;;10.25;;
43160;SDS011;40968;52.342;5.528;2023-11-18T12:24:43;23.50;;;8.93;;
43160;SDS011;40968;52.342;5.528;2023-11-18T12:27:12;32.33;;;10.48;;
43160;SDS011;40968;52.342;5.528;2023-11-18T12:29:41;27.45;;;9.25;;
43160;SDS011;40968;52.342;5.528;2023-11-18T12:32:10;29.02;;;9.52;;
43160;SDS011;40968;52.342;5.528;2023-11-18T12:34:51;29.50;;;10.32;;
43160;SDS011;40968;52.342;5.528;2023-11-18T12:37:33;30.42;;;9.60;;
43160;SDS011;40968;52.342;5.528;2023-11-18T12:40:41;24.48;;;9.35;;
43160;SDS011;40968;52.342;5.528;2023-11-18T12:43:18;29.83;;;9.60;;
43160;SDS011;40968;52.342;5.528;2023-11-18T12:46:25;23.65;;;9.05;;
43160;SDS011;40968;52.342;5.528;2023-11-18T12:49:19;20.08;;;7.63;;
43160;SDS011;40968;52.342;5.528;2023-11-18T12:51:49;26.70;;;8.30;;
43160;SDS011;40968;52.342;5.528;2023-11-18T12:54:16;24.30;;;8.90;;
43160;SDS011;40968;52.342;5.528;2023-11-18T12:56:44;20.83;;;8.52;;
43160;SDS011;40968;52.342;5.528;2023-11-18T12:59:14;22.83;;;8.00;;
43160;SDS011;40968;52.342;5.528;2023-11-18T13:01:43;31.33;;;9.43;;
43160;SDS011;40968;52.342;5.528;2023-11-18T13:04:16;21.90;;;8.20;;
43160;SDS011;40968;52.342;5.528;2023-11-18T13:06:45;21.30;;;7.97;;
43160;SDS011;40968;52.342;5.528;2023-11-18T13:09:14;20.90;;;6.88;;
43160;SDS011;40968;52.342;5.528;2023-11-18T13:11:50;19.65;;;8.23;;
43160;SDS011;40968;52.342;5.528;2023-11-18T13:14:20;32.00;;;8.38;;
43160;SDS011;40968;52.342;5.528;2023-11-18T13:16:47;35.15;;;8.88;;
43160;SDS011;40968;52.342;5.528;2023-11-18T13:19:22;23.80;;;8.07;;
43160;SDS011;40968;52.342;5.528;2023-11-18T13:21:51;18.30;;;6.28;;
43160;SDS011;40968;52.342;5.528;2023-11-18T13:24:17;21.27;;;6.53;;
43160;SDS011;40968;52.342;5.528;2023-11-18T13:26:44;18.48;;;7.10;;
43160;SDS011;40968;52.342;5.528;2023-11-18T13:29:11;24.63;;;7.47;;
43160;SDS011;40968;52.342;5.528;2023-11-18T13:31:38;20.08;;;6.60;;
43160;SDS011;40968;52.342;5.528;2023-11-18T13:34:06;18.83;;;6.70;;
43160;SDS011;40968;52.342;5.528;2023-11-18T13:36:32;19.95;;;7.30;;
43160;SDS011;40968;52.342;5.528;2023-11-18T13:39:00;13.88;;;5.90;;
43160;SDS011;40968;52.342;5.528;2023-11-18T13:41:28;22.80;;;6.07;;
43160;SDS011;40968;52.342;5.528;2023-11-18T13:43:56;14.50;;;6.60;;
43160;SDS011;40968;52.342;5.528;2023-11-18T13:46:23;20.60;;;6.43;;
43160;SDS011;40968;52.342;5.528;2023-11-18T13:48:51;16.92;;;5.95;;
43160;SDS011;40968;52.342;5.528;2023-11-18T13:51:18;14.70;;;5.90;;
43160;SDS011;40968;52.342;5.528;2023-11-18T13:53:46;11.38;;;5.75;;
43160;SDS011;40968;52.342;5.528;2023-11-18T13:56:14;16.75;;;5.75;;
43160;SDS011;40968;52.342;5.528;2023-11-18T13:58:42;16.10;;;5.97;;
43160;SDS011;40968;52.342;5.528;2023-11-18T14:01:11;13.82;;;5.20;;
43160;SDS011;40968;52.342;5.528;2023-11-18T14:03:38;10.48;;;4.90;;
43160;SDS011;40968;52.342;5.528;2023-11-18T14:06:08;14.70;;;4.88;;
43160;SDS011;40968;52.342;5.528;2023-11-18T14:08:36;8.57;;;3.92;;
43160;SDS011;40968;52.342;5.528;2023-11-18T14:11:03;9.93;;;4.32;;
43160;SDS011;40968;52.342;5.528;2023-11-18T14:13:32;12.60;;;4.63;;
43160;SDS011;40968;52.342;5.528;2023-11-18T14:16:00;13.38;;;5.53;;
43160;SDS011;40968;52.342;5.528;2023-11-18T14:18:26;15.60;;;4.95;;
43160;SDS011;40968;52.342;5.528;2023-11-18T14:20:53;15.50;;;5.47;;
43160;SDS011;40968;52.342;5.528;2023-11-18T14:23:20;13.60;;;4.32;;
43160;SDS011;40968;52.342;5.528;2023-11-18T14:25:48;10.77;;;4.70;;
43160;SDS011;40968;52.342;5.528;2023-11-18T14:28:14;10.02;;;4.45;;
43160;SDS011;40968;52.342;5.528;2023-11-18T14:30:44;15.77;;;4.22;;